Time;durP1;ratioP1;P1;durP2;ratioP2;P2;SDS_P1;SDS_P2;PMS_P1;PMS_P2;Temp;Humidity;BMP_temperature;BMP_pressure;BME280_temperature;BME280_humidity;BME280_pressure;Samples;Min_cycle;Max_cycle;Signal;HPM_P1;HPM_P2
2023/08/14 00:01:13;;;;;;;0.20;0.20;;;;;;;;;;5103314;27;20442;-50
2023/08/14 00:03:38;;;;;;;0.20;0.20;;;;;;;;;;5110172;28;20047;-53
2023/08/14 00:06:04;;;;;;;0.17;0.17;;;;;;;;;;5125007;28;20070;-51
2023/08/14 00:08:30;;;;;;;0.10;0.10;;;;;;;;;;5129664;28;20132;-50
2023/08/14 00:10:55;;;;;;;0.10;0.10;;;;;;;;;;5120452;28;20051;-50
2023/08/14 00:13:21;;;;;;;0.13;0.13;;;;;;;;;;5110417;28;20108;-50
2023/08/14 00:15:47;;;;;;;0.10;0.10;;;;;;;;;;5110765;28;20077;-50
2023/08/14 00:18:13;;;;;;;0.10;0.10;;;;;;;;;;5109864;28;20405;-50
2023/08/14 00:20:39;;;;;;;0.10;0.10;;;;;;;;;;5107731;28;20491;-50
2023/08/14 00:23:04;;;;;;;0.10;0.10;;;;;;;;;;5110227;28;20077;-50
2023/08/14 00:25:30;;;;;;;0.10;0.10;;;;;;;;;;5110136;28;20444;-51
2023/08/14 00:27:55;;;;;;;0.20;0.20;;;;;;;;;;5110302;28;20043;-50
2023/08/14 00:30:21;;;;;;;0.20;0.20;;;;;;;;;;5109731;28;20450;-48
2023/08/14 00:32:47;;;;;;;0.10;0.10;;;;;;;;;;5110245;28;20052;-51
2023/08/14 00:35:12;;;;;;;0.10;0.10;;;;;;;;;;5110369;28;20567;-50
2023/08/14 00:37:38;;;;;;;0.20;0.20;;;;;;;;;;5123961;28;20293;-47
2023/08/14 00:40:04;;;;;;;0.10;0.10;;;;;;;;;;5122004;28;20640;-48
2023/08/14 00:42:30;;;;;;;0.13;0.13;;;;;;;;;;5109810;28;20568;-51
2023/08/14 00:44:55;;;;;;;0.20;0.20;;;;;;;;;;5110000;28;20055;-48
2023/08/14 00:47:21;;;;;;;0.10;0.10;;;;;;;;;;5110192;28;20395;-48
2023/08/14 00:49:46;;;;;;;0.10;0.10;;;;;;;;;;5109035;28;20048;-47
2023/08/14 00:52:12;;;;;;;0.10;0.10;;;;;;;;;;5109444;28;20074;-47
2023/08/14 00:54:37;;;;;;;0.10;0.10;;;;;;;;;;5103003;28;20266;-50
2023/08/14 00:57:03;;;;;;;0.10;0.10;;;;;;;;;;5125806;28;20163;-49
2023/08/14 00:59:29;;;;;;;0.10;0.10;;;;;;;;;;5109352;28;20369;-49
2023/08/14 01:01:55;;;;;;;0.10;0.10;;;;;;;;;;5090979;28;20110;-51
2023/08/14 01:04:20;;;;;;;0.20;0.20;;;;;;;;;;5126770;28;20116;-51
2023/08/14 01:06:46;;;;;;;0.10;0.10;;;;;;;;;;5130667;28;20103;-50
2023/08/14 01:09:11;;;;;;;0.20;0.20;;;;;;;;;;5129547;28;20373;-49
2023/08/14 01:11:46;;;;;;;0.10;0.10;;;;;;;;;;5116314;27;20134;-48
2023/08/14 01:14:23;;;;;;;0.20;0.20;;;;;;;;;;5109637;28;20047;-49
2023/08/14 01:16:51;;;;;;;0.20;0.20;;;;;;;;;;5111304;28;20050;-50
2023/08/14 01:19:20;;;;;;;0.10;0.10;;;;;;;;;;5109992;28;20047;-47
2023/08/14 01:21:53;;;;;;;0.10;0.10;;;;;;;;;;5100657;28;20051;-49
2023/08/14 01:24:24;;;;;;;0.10;0.10;;;;;;;;;;5129304;28;20058;-49
2023/08/14 01:26:51;;;;;;;0.20;0.20;;;;;;;;;;5117447;28;20051;-50
2023/08/14 01:29:16;;;;;;;0.10;0.10;;;;;;;;;;5109568;28;20052;-48
2023/08/14 01:31:42;;;;;;;0.20;0.20;;;;;;;;;;5108716;28;20092;-50
2023/08/14 01:34:08;;;;;;;0.10;0.10;;;;;;;;;;5112454;28;20047;-52
2023/08/14 01:36:37;;;;;;;0.20;0.20;;;;;;;;;;5111935;28;20067;-50
2023/08/14 01:39:07;;;;;;;0.10;0.10;;;;;;;;;;5115340;28;20403;-49
2023/08/14 01:41:36;;;;;;;0.10;0.10;;;;;;;;;;5114937;28;20043;-52
2023/08/14 01:44:03;;;;;;;0.10;0.10;;;;;;;;;;5109595;28;20083;-52
2023/08/14 01:46:31;;;;;;;0.10;0.10;;;;;;;;;;5109792;28;20043;-49
2023/08/14 01:48:58;;;;;;;0.20;0.20;;;;;;;;;;5109145;28;20416;-51
2023/08/14 01:51:24;;;;;;;0.10;0.10;;;;;;;;;;5095170;28;20062;-50
2023/08/14 01:53:49;;;;;;;0.20;0.20;;;;;;;;;;5100288;28;20047;-48
2023/08/14 01:56:15;;;;;;;0.20;0.20;;;;;;;;;;5124459;28;20051;-51
2023/08/14 01:58:40;;;;;;;0.10;0.10;;;;;;;;;;5126244;28;20044;-49
2023/08/14 02:01:06;;;;;;;0.10;0.10;;;;;;;;;;5112056;28;20055;-51
2023/08/14 02:03:31;;;;;;;0.10;0.10;;;;;;;;;;5108881;28;20623;-51
2023/08/14 02:05:57;;;;;;;0.20;0.20;;;;;;;;;;5123670;28;20096;-49
2023/08/14 02:08:23;;;;;;;0.10;0.10;;;;;;;;;;5128841;28;20499;-50
2023/08/14 02:10:48;;;;;;;0.13;0.13;;;;;;;;;;5118980;28;20595;-49
2023/08/14 02:13:14;;;;;;;0.10;0.10;;;;;;;;;;5120632;28;20047;-51
2023/08/14 02:15:39;;;;;;;0.10;0.10;;;;;;;;;;5128357;28;20047;-51
2023/08/14 02:18:05;;;;;;;0.10;0.10;;;;;;;;;;5127913;28;20143;-51
2023/08/14 02:20:30;;;;;;;0.20;0.20;;;;;;;;;;5102841;28;20048;-49
2023/08/14 02:22:56;;;;;;;0.10;0.10;;;;;;;;;;5086499;28;20055;-47
2023/08/14 02:25:21;;;;;;;0.20;0.20;;;;;;;;;;5119511;28;20043;-51
2023/08/14 02:27:47;;;;;;;0.10;0.10;;;;;;;;;;5126362;28;20347;-50
2023/08/14 02:30:12;;;;;;;0.20;0.20;;;;;;;;;;5124397;28;20062;-53
2023/08/14 02:32:38;;;;;;;0.10;0.10;;;;;;;;;;5107475;28;20065;-49
2023/08/14 02:35:04;;;;;;;0.10;0.10;;;;;;;;;;5107219;28;20043;-48
2023/08/14 02:37:29;;;;;;;0.10;0.10;;;;;;;;;;5107815;28;20138;-47
2023/08/14 02:39:55;;;;;;;0.10;0.10;;;;;;;;;;5109961;28;20047;-47
2023/08/14 02:42:20;;;;;;;0.10;0.10;;;;;;;;;;5121583;28;20134;-52
2023/08/14 02:44:47;;;;;;;0.13;0.13;;;;;;;;;;5110573;28;20063;-51
2023/08/14 02:47:12;;;;;;;0.13;0.13;;;;;;;;;;5107623;28;20055;-50
2023/08/14 02:49:38;;;;;;;0.10;0.10;;;;;;;;;;5108066;28;20047;-46
2023/08/14 02:52:04;;;;;;;0.20;0.20;;;;;;;;;;5088833;28;20182;-46
2023/08/14 02:54:29;;;;;;;0.10;0.10;;;;;;;;;;5122784;28;20104;-57
2023/08/14 02:56:55;;;;;;;0.10;0.10;;;;;;;;;;5128640;28;20142;-54
2023/08/14 02:59:21;;;;;;;0.20;0.20;;;;;;;;;;5127590;28;20046;-57
2023/08/14 03:01:46;;;;;;;0.10;0.10;;;;;;;;;;5121379;27;20125;-57
2023/08/14 03:04:13;;;;;;;0.13;0.13;;;;;;;;;;5127418;28;20479;-53
2023/08/14 03:06:38;;;;;;;0.20;0.20;;;;;;;;;;5123622;28;20047;-55
2023/08/14 03:09:04;;;;;;;0.10;0.10;;;;;;;;;;5085764;28;20066;-57
2023/08/14 03:11:30;;;;;;;0.10;0.10;;;;;;;;;;5099147;28;20128;-55
2023/08/14 03:13:55;;;;;;;0.10;0.10;;;;;;;;;;5110002;28;20614;-54
2023/08/14 03:16:21;;;;;;;0.10;0.10;;;;;;;;;;5127743;28;20043;-57
2023/08/14 03:18:46;;;;;;;0.10;0.10;;;;;;;;;;5127047;28;20142;-55
2023/08/14 03:21:12;;;;;;;0.20;0.20;;;;;;;;;;5119224;28;20408;-54
2023/08/14 03:23:37;;;;;;;0.10;0.10;;;;;;;;;;5126827;28;20077;-53
2023/08/14 03:26:04;;;;;;;0.10;0.10;;;;;;;;;;5118085;28;20044;-58
2023/08/14 03:28:29;;;;;;;0.10;0.10;;;;;;;;;;5109026;28;20055;-55
2023/08/14 03:30:55;;;;;;;0.10;0.10;;;;;;;;;;5098456;28;20052;-56
2023/08/14 03:33:20;;;;;;;0.17;0.17;;;;;;;;;;5085652;28;20056;-56
2023/08/14 03:35:46;;;;;;;0.10;0.10;;;;;;;;;;5089222;28;20056;-54
2023/08/14 03:38:11;;;;;;;0.20;0.20;;;;;;;;;;5097910;28;20055;-55
2023/08/14 03:40:37;;;;;;;0.20;0.20;;;;;;;;;;5103452;28;20048;-55
2023/08/14 03:43:03;;;;;;;0.15;0.15;;;;;;;;;;5106944;28;20056;-54
2023/08/14 03:45:28;;;;;;;0.17;0.17;;;;;;;;;;5111265;28;20051;-57
2023/08/14 03:47:54;;;;;;;0.15;0.15;;;;;;;;;;5111072;28;20052;-54
2023/08/14 03:50:19;;;;;;;0.10;0.10;;;;;;;;;;5106522;28;20052;-54
2023/08/14 03:52:45;;;;;;;0.10;0.10;;;;;;;;;;5098340;28;20564;-56
2023/08/14 03:55:10;;;;;;;0.10;0.10;;;;;;;;;;5131099;28;20467;-55
2023/08/14 03:57:36;;;;;;;0.10;0.10;;;;;;;;;;5110926;28;20104;-56
2023/08/14 04:00:02;;;;;;;0.10;0.10;;;;;;;;;;5110072;28;20048;-56
2023/08/14 04:02:28;;;;;;;0.10;0.10;;;;;;;;;;5113986;28;20043;-55
2023/08/14 04:04:53;;;;;;;0.10;0.10;;;;;;;;;;5129119;28;20451;-56
2023/08/14 04:07:19;;;;;;;0.10;0.10;;;;;;;;;;5130786;28;20135;-55
2023/08/14 04:09:44;;;;;;;0.10;0.10;;;;;;;;;;5128748;28;20472;-54
2023/08/14 04:12:10;;;;;;;0.10;0.10;;;;;;;;;;5110782;28;20368;-54
2023/08/14 04:14:36;;;;;;;0.10;0.10;;;;;;;;;;5110896;28;20067;-55
2023/08/14 04:17:01;;;;;;;0.20;0.20;;;;;;;;;;5111226;28;20048;-55
2023/08/14 04:19:27;;;;;;;0.20;0.20;;;;;;;;;;5110619;28;20047;-55
2023/08/14 04:21:52;;;;;;;0.20;0.20;;;;;;;;;;5103307;28;20069;-56
2023/08/14 04:24:18;;;;;;;0.20;0.20;;;;;;;;;;5110687;28;20050;-55
2023/08/14 04:26:43;;;;;;;0.10;0.10;;;;;;;;;;5109942;28;20462;-56
2023/08/14 04:29:09;;;;;;;0.20;0.20;;;;;;;;;;5112021;28;20100;-55
2023/08/14 04:31:36;;;;;;;0.10;0.10;;;;;;;;;;5117689;28;20143;-57
2023/08/14 04:34:02;;;;;;;0.10;0.10;;;;;;;;;;5130916;28;20403;-56
2023/08/14 04:36:30;;;;;;;0.13;0.13;;;;;;;;;;5130642;28;20039;-58
2023/08/14 04:38:56;;;;;;;0.20;0.20;;;;;;;;;;5128944;28;20082;-56
2023/08/14 04:41:21;;;;;;;0.20;0.20;;;;;;;;;;5110922;28;20048;-55
2023/08/14 04:43:47;;;;;;;0.10;0.10;;;;;;;;;;5106576;28;20484;-57
2023/08/14 04:46:26;;;;;;;0.10;0.10;;;;;;;;;;5107598;28;20502;-57
2023/08/14 04:48:52;;;;;;;0.10;0.10;;;;;;;;;;5109226;28;20048;-55
2023/08/14 04:51:18;;;;;;;0.10;0.10;;;;;;;;;;5099742;28;20177;-55
2023/08/14 04:53:43;;;;;;;0.15;0.15;;;;;;;;;;5106149;28;20438;-57
2023/08/14 04:56:09;;;;;;;0.20;0.20;;;;;;;;;;5107483;28;20055;-54
2023/08/14 04:58:34;;;;;;;0.10;0.10;;;;;;;;;;5107459;28;20073;-55
2023/08/14 05:01:00;;;;;;;0.10;0.10;;;;;;;;;;5105375;28;20055;-57
2023/08/14 05:03:25;;;;;;;0.10;0.10;;;;;;;;;;5100560;28;20070;-55
2023/08/14 05:05:51;;;;;;;0.20;0.20;;;;;;;;;;5108664;28;20443;-55
2023/08/14 05:08:17;;;;;;;0.20;0.20;;;;;;;;;;5102386;28;20210;-55
2023/08/14 05:10:42;;;;;;;0.20;0.20;;;;;;;;;;5097604;28;20404;-55
2023/08/14 05:13:08;;;;;;;0.10;0.10;;;;;;;;;;5107476;28;20279;-56
2023/08/14 05:15:33;;;;;;;0.10;0.10;;;;;;;;;;5105262;28;20394;-57
2023/08/14 05:17:59;;;;;;;0.20;0.20;;;;;;;;;;5106934;28;20048;-56
2023/08/14 05:20:24;;;;;;;0.20;0.20;;;;;;;;;;5104745;28;20116;-55
2023/08/14 05:22:50;;;;;;;0.20;0.20;;;;;;;;;;5107085;28;20056;-55
2023/08/14 05:25:15;;;;;;;0.20;0.20;;;;;;;;;;5123009;28;20047;-59
2023/08/14 05:27:41;;;;;;;0.20;0.20;;;;;;;;;;5103335;28;20047;-58
2023/08/14 05:30:07;;;;;;;0.17;0.17;;;;;;;;;;5100320;28;20042;-56
2023/08/14 05:32:32;;;;;;;0.10;0.10;;;;;;;;;;5106238;28;20098;-58
2023/08/14 05:34:58;;;;;;;0.20;0.20;;;;;;;;;;5097058;28;20538;-59
2023/08/14 05:37:23;;;;;;;0.20;0.20;;;;;;;;;;5101109;28;20104;-57
2023/08/14 05:39:49;;;;;;;0.20;0.20;;;;;;;;;;5086783;28;20121;-59
2023/08/14 05:42:15;;;;;;;0.20;0.20;;;;;;;;;;5096355;28;20278;-58
2023/08/14 05:44:41;;;;;;;0.20;0.20;;;;;;;;;;5089146;28;20054;-57
2023/08/14 05:47:06;;;;;;;0.17;0.17;;;;;;;;;;5103286;28;20531;-59
2023/08/14 05:49:32;;;;;;;0.10;0.10;;;;;;;;;;5096231;28;20487;-58
2023/08/14 05:51:57;;;;;;;0.10;0.10;;;;;;;;;;5084308;28;20044;-57
2023/08/14 05:54:23;;;;;;;0.15;0.15;;;;;;;;;;5088440;28;20399;-56
2023/08/14 05:56:50;;;;;;;0.10;0.10;;;;;;;;;;5078662;28;20044;-57
2023/08/14 05:59:16;;;;;;;0.20;0.20;;;;;;;;;;5080210;28;20730;-57
2023/08/14 06:01:41;;;;;;;0.20;0.20;;;;;;;;;;5074017;28;20072;-56
2023/08/14 06:04:07;;;;;;;0.20;0.20;;;;;;;;;;5078857;28;20086;-58
2023/08/14 06:06:33;;;;;;;0.20;0.20;;;;;;;;;;5087869;28;20050;-58
2023/08/14 06:08:59;;;;;;;0.20;0.20;;;;;;;;;;5079369;28;20043;-54
2023/08/14 06:11:26;;;;;;;0.20;0.20;;;;;;;;;;5089992;28;20054;-57
2023/08/14 06:13:52;;;;;;;0.20;0.20;;;;;;;;;;5076442;28;20047;-56
2023/08/14 06:16:17;;;;;;;0.10;0.10;;;;;;;;;;5086202;28;20553;-58
2023/08/14 06:18:43;;;;;;;0.20;0.20;;;;;;;;;;5094437;28;20445;-55
2023/08/14 06:21:08;;;;;;;0.10;0.10;;;;;;;;;;5089809;28;20058;-63
2023/08/14 06:23:34;;;;;;;0.20;0.20;;;;;;;;;;5095805;28;20058;-57
2023/08/14 06:25:59;;;;;;;0.20;0.20;;;;;;;;;;5103532;28;20514;-58
2023/08/14 06:28:25;;;;;;;0.20;0.20;;;;;;;;;;5093743;28;20046;-59
2023/08/14 06:30:51;;;;;;;0.20;0.20;;;;;;;;;;5097294;28;20050;-56
2023/08/14 06:33:16;;;;;;;0.10;0.10;;;;;;;;;;5096044;28;20112;-57
2023/08/14 06:35:42;;;;;;;0.20;0.20;;;;;;;;;;5097413;28;20187;-55
2023/08/14 06:38:08;;;;;;;0.10;0.10;;;;;;;;;;5091784;28;20050;-57
2023/08/14 06:40:33;;;;;;;0.20;0.20;;;;;;;;;;5092568;28;20351;-57
2023/08/14 06:42:59;;;;;;;0.20;0.20;;;;;;;;;;5090951;28;20950;-56
2023/08/14 06:45:24;;;;;;;0.35;0.28;;;;;;;;;;5087973;28;20039;-57
2023/08/14 06:47:50;;;;;;;0.20;0.20;;;;;;;;;;5084893;28;20081;-56
2023/08/14 06:50:16;;;;;;;0.10;0.10;;;;;;;;;;5085364;28;20079;-56
2023/08/14 06:52:41;;;;;;;0.15;0.15;;;;;;;;;;5079059;28;20116;-56
2023/08/14 06:55:07;;;;;;;0.20;0.20;;;;;;;;;;5083691;28;20044;-55
2023/08/14 06:57:33;;;;;;;0.10;0.10;;;;;;;;;;5081324;28;20078;-57
2023/08/14 07:00:03;;;;;;;0.20;0.20;;;;;;;;;;5081411;28;20047;-57
2023/08/14 07:02:28;;;;;;;0.15;0.15;;;;;;;;;;5071268;28;20081;-56
2023/08/14 07:04:54;;;;;;;0.17;0.17;;;;;;;;;;5075980;28;20424;-57
2023/08/14 07:07:20;;;;;;;0.10;0.10;;;;;;;;;;5069384;28;20139;-55
2023/08/14 07:09:45;;;;;;;0.20;0.20;;;;;;;;;;5082570;28;20075;-58
2023/08/14 07:12:11;;;;;;;0.20;0.20;;;;;;;;;;5077960;28;20043;-58
2023/08/14 07:14:36;;;;;;;0.10;0.10;;;;;;;;;;5081507;28;20428;-58
2023/08/14 07:17:02;;;;;;;0.20;0.20;;;;;;;;;;5080863;28;20471;-58
2023/08/14 07:19:28;;;;;;;0.20;0.20;;;;;;;;;;5095991;28;20040;-58
2023/08/14 07:21:53;;;;;;;0.30;0.30;;;;;;;;;;5090416;28;20078;-57
2023/08/14 07:24:19;;;;;;;0.20;0.20;;;;;;;;;;5087018;28;20046;-57
2023/08/14 07:26:44;;;;;;;0.20;0.20;;;;;;;;;;5092316;28;20446;-60
2023/08/14 07:29:10;;;;;;;0.10;0.10;;;;;;;;;;5090776;28;20047;-53
2023/08/14 07:31:35;;;;;;;0.20;0.20;;;;;;;;;;5092245;28;20097;-57
2023/08/14 07:34:01;;;;;;;0.20;0.20;;;;;;;;;;5101495;28;20450;-56
2023/08/14 07:36:27;;;;;;;0.10;0.10;;;;;;;;;;5095955;28;20123;-57
2023/08/14 07:38:53;;;;;;;0.15;0.15;;;;;;;;;;5102417;28;20552;-55
2023/08/14 07:41:18;;;;;;;0.17;0.17;;;;;;;;;;5089350;28;20051;-57
2023/08/14 07:43:44;;;;;;;0.20;0.20;;;;;;;;;;5093719;28;20131;-56
2023/08/14 07:46:09;;;;;;;0.10;0.10;;;;;;;;;;5102687;28;20153;-57
2023/08/14 07:48:35;;;;;;;0.10;0.10;;;;;;;;;;5088644;28;20047;-58
2023/08/14 07:51:00;;;;;;;0.20;0.20;;;;;;;;;;5089615;28;20566;-57
2023/08/14 07:53:26;;;;;;;0.20;0.20;;;;;;;;;;5092316;28;20043;-57
2023/08/14 07:55:52;;;;;;;0.17;0.17;;;;;;;;;;5088434;28;20132;-55
2023/08/14 07:58:18;;;;;;;0.20;0.20;;;;;;;;;;5094183;28;20048;-57
2023/08/14 08:00:44;;;;;;;0.10;0.10;;;;;;;;;;5094306;28;20492;-59
2023/08/14 08:03:09;;;;;;;0.10;0.10;;;;;;;;;;5087639;28;20036;-57
2023/08/14 08:05:36;;;;;;;0.10;0.10;;;;;;;;;;5088182;28;20043;-57
2023/08/14 08:08:01;;;;;;;0.10;0.10;;;;;;;;;;5083536;28;20052;-57
2023/08/14 08:10:27;;;;;;;0.10;0.10;;;;;;;;;;5092588;28;20054;-57
2023/08/14 08:12:53;;;;;;;0.10;0.10;;;;;;;;;;5094957;28;20486;-57
2023/08/14 08:15:18;;;;;;;0.10;0.10;;;;;;;;;;5090407;28;20229;-58
2023/08/14 08:17:44;;;;;;;0.10;0.10;;;;;;;;;;5101339;28;20070;-57
2023/08/14 08:20:10;;;;;;;0.20;0.20;;;;;;;;;;5089472;28;20048;-56
2023/08/14 08:22:36;;;;;;;0.20;0.20;;;;;;;;;;5089697;28;20086;-57
2023/08/14 08:25:01;;;;;;;0.20;0.20;;;;;;;;;;5091882;28;20047;-57
2023/08/14 08:27:27;;;;;;;0.20;0.20;;;;;;;;;;5092270;28;20416;-57
2023/08/14 08:29:52;;;;;;;0.20;0.20;;;;;;;;;;5093227;28;20059;-57
2023/08/14 08:32:18;;;;;;;0.20;0.20;;;;;;;;;;5095286;28;20063;-57
2023/08/14 08:34:44;;;;;;;0.20;0.20;;;;;;;;;;5097293;28;20047;-56
2023/08/14 08:37:10;;;;;;;0.10;0.10;;;;;;;;;;5080326;28;20044;-55
2023/08/14 08:39:35;;;;;;;0.10;0.10;;;;;;;;;;5073910;28;20145;-56
2023/08/14 08:42:01;;;;;;;0.10;0.10;;;;;;;;;;5077394;28;20254;-56
2023/08/14 08:44:31;;;;;;;0.10;0.10;;;;;;;;;;5089096;28;20047;-56
2023/08/14 08:46:59;;;;;;;0.10;0.10;;;;;;;;;;5097377;28;20387;-57
2023/08/14 08:49:24;;;;;;;;;;;;;;;;;;5098649;28;20055;-56
2023/08/14 08:51:54;;;;;;;0.10;0.10;;;;;;;;;;5089953;28;19959;-57
2023/08/14 08:54:20;;;;;;;0.20;0.20;;;;;;;;;;5088357;28;20043;-57
2023/08/14 08:56:46;;;;;;;0.20;0.20;;;;;;;;;;5088846;28;20432;-58
2023/08/14 08:59:12;;;;;;;0.10;0.10;;;;;;;;;;5089471;28;20047;-57
2023/08/14 09:01:38;;;;;;;0.10;0.10;;;;;;;;;;5088757;28;20063;-56
2023/08/14 09:04:04;;;;;;;0.20;0.20;;;;;;;;;;5092794;28;20052;-57
2023/08/14 09:06:30;;;;;;;0.20;0.20;;;;;;;;;;5093718;28;20043;-55
2023/08/14 09:08:56;;;;;;;0.20;0.20;;;;;;;;;;5088680;28;20051;-54
2023/08/14 09:11:21;;;;;;;0.20;0.20;;;;;;;;;;5085023;28;20752;-55
2023/08/14 09:13:47;;;;;;;0.10;0.10;;;;;;;;;;5087671;28;20051;-55
2023/08/14 09:16:15;;;;;;;0.10;0.10;;;;;;;;;;5085345;28;20052;-57
2023/08/14 09:18:42;;;;;;;0.20;0.20;;;;;;;;;;5088610;28;20102;-57
2023/08/14 09:21:08;;;;;;;0.20;0.20;;;;;;;;;;5094550;28;20112;-57
2023/08/14 09:23:34;;;;;;;0.20;0.20;;;;;;;;;;5087333;28;20250;-53
2023/08/14 09:26:00;;;;;;;0.20;0.20;;;;;;;;;;5089789;28;20051;-54
2023/08/14 09:28:26;;;;;;;0.20;0.20;;;;;;;;;;5078349;28;20047;-54
2023/08/14 09:30:52;;;;;;;0.10;0.10;;;;;;;;;;5079956;28;20099;-56
2023/08/14 09:33:17;;;;;;;0.20;0.20;;;;;;;;;;5072378;28;20044;-57
2023/08/14 09:35:51;;;;;;;0.30;0.30;;;;;;;;;;5078924;28;20043;-56
2023/08/14 09:38:16;;;;;;;0.10;0.10;;;;;;;;;;5059426;28;20322;-56
2023/08/14 09:40:42;;;;;;;0.15;0.15;;;;;;;;;;5075452;28;20941;-57
2023/08/14 09:43:09;;;;;;;0.10;0.10;;;;;;;;;;5072788;28;20143;-57
2023/08/14 09:45:35;;;;;;;0.10;0.10;;;;;;;;;;5077621;28;20230;-54
2023/08/14 09:48:03;;;;;;;0.10;0.10;;;;;;;;;;5065771;28;20063;-54
2023/08/14 09:50:29;;;;;;;0.20;0.20;;;;;;;;;;5083915;28;20626;-56
2023/08/14 09:52:56;;;;;;;0.10;0.10;;;;;;;;;;5087802;28;20511;-57
2023/08/14 09:55:22;;;;;;;0.10;0.10;;;;;;;;;;5096795;28;20406;-57
2023/08/14 09:57:48;;;;;;;0.13;0.13;;;;;;;;;;5082994;28;20043;-56
2023/08/14 10:00:14;;;;;;;0.10;0.10;;;;;;;;;;5091872;28;20043;-56
2023/08/14 10:02:40;;;;;;;0.10;0.10;;;;;;;;;;5085947;28;20051;-57
2023/08/14 10:05:09;;;;;;;0.20;0.20;;;;;;;;;;5088219;28;20168;-59
2023/08/14 10:07:34;;;;;;;0.20;0.20;;;;;;;;;;5086314;28;20097;-57
2023/08/14 10:10:02;;;;;;;0.10;0.10;;;;;;;;;;5083558;28;20127;-56
2023/08/14 10:12:28;;;;;;;0.10;0.10;;;;;;;;;;5086125;28;20052;-56
2023/08/14 10:15:00;;;;;;;0.10;0.10;;;;;;;;;;5089588;28;20044;-56
2023/08/14 10:17:31;;;;;;;0.17;0.17;;;;;;;;;;5094016;28;20070;-56
2023/08/14 10:20:00;;;;;;;0.10;0.10;;;;;;;;;;5093015;28;20146;-56
2023/08/14 10:22:26;;;;;;;0.10;0.10;;;;;;;;;;5083814;28;20124;-57
2023/08/14 10:24:53;;;;;;;0.20;0.20;;;;;;;;;;5089014;28;20051;-57
2023/08/14 10:27:19;;;;;;;0.10;0.10;;;;;;;;;;5092031;28;20058;-54
2023/08/14 10:29:45;;;;;;;0.15;0.15;;;;;;;;;;5090426;28;20031;-54
2023/08/14 10:32:10;;;;;;;0.10;0.10;;;;;;;;;;5086789;28;20190;-56
2023/08/14 10:34:36;;;;;;;0.10;0.10;;;;;;;;;;5092521;28;20169;-55
2023/08/14 10:37:02;;;;;;;0.10;0.10;;;;;;;;;;5087487;28;20044;-57
2023/08/14 10:39:32;;;;;;;0.10;0.10;;;;;;;;;;5086024;28;20047;-55
2023/08/14 10:41:59;;;;;;;0.10;0.10;;;;;;;;;;5084582;28;20573;-57
2023/08/14 10:44:30;;;;;;;0.10;0.10;;;;;;;;;;5074816;28;20047;-57
2023/08/14 10:47:03;;;;;;;0.20;0.20;;;;;;;;;;5089314;28;20054;-55
2023/08/14 10:49:28;;;;;;;0.10;0.10;;;;;;;;;;5088437;28;20047;-56
2023/08/14 10:51:58;;;;;;;0.10;0.10;;;;;;;;;;5088639;28;20052;-56
2023/08/14 10:54:35;;;;;;;0.10;0.10;;;;;;;;;;5088760;28;20851;-55
2023/08/14 10:57:06;;;;;;;0.10;0.10;;;;;;;;;;5103253;28;20584;-56
2023/08/14 10:59:33;;;;;;;0.10;0.10;;;;;;;;;;5093363;28;20396;-57
2023/08/14 11:02:14;;;;;;;0.10;0.10;;;;;;;;;;5087408;28;20047;-53
2023/08/14 11:05:00;;;;;;;0.17;0.17;;;;;;;;;;5079489;28;20345;-56
2023/08/14 11:07:28;;;;;;;0.10;0.10;;;;;;;;;;5072699;28;20044;-56
2023/08/14 11:09:54;;;;;;;0.10;0.10;;;;;;;;;;5085173;28;20071;-55
2023/08/14 11:12:20;;;;;;;0.10;0.10;;;;;;;;;;5085659;28;20044;-56
2023/08/14 11:14:46;;;;;;;0.10;0.10;;;;;;;;;;5086508;28;20299;-54
2023/08/14 11:17:12;;;;;;;0.10;0.10;;;;;;;;;;5080165;28;20047;-54
2023/08/14 11:19:38;;;;;;;0.10;0.10;;;;;;;;;;5081815;28;20381;-57
2023/08/14 11:22:03;;;;;;;0.10;0.10;;;;;;;;;;5082690;28;20051;-52
2023/08/14 11:24:29;;;;;;;0.10;0.10;;;;;;;;;;5082832;28;20493;-58
2023/08/14 11:26:57;;;;;;;0.10;0.10;;;;;;;;;;5087314;28;20043;-57
2023/08/14 11:29:22;;;;;;;0.10;0.10;;;;;;;;;;5082628;28;20329;-56
2023/08/14 11:31:48;;;;;;;0.20;0.20;;;;;;;;;;5081971;28;20048;-55
2023/08/14 11:34:15;;;;;;;0.10;0.10;;;;;;;;;;5077543;28;20069;-56
2023/08/14 11:36:41;;;;;;;0.10;0.10;;;;;;;;;;5078248;28;20139;-54
2023/08/14 11:39:08;;;;;;;0.10;0.10;;;;;;;;;;5088504;28;20058;-55
2023/08/14 11:41:34;;;;;;;0.10;0.10;;;;;;;;;;5088708;28;20408;-55
2023/08/14 11:43:59;;;;;;;0.10;0.10;;;;;;;;;;5092061;28;20525;-54
2023/08/14 11:46:25;;;;;;;0.10;0.10;;;;;;;;;;5090118;28;20547;-55
2023/08/14 11:48:51;;;;;;;0.10;0.10;;;;;;;;;;5091930;28;20051;-56
2023/08/14 11:51:17;;;;;;;0.15;0.15;;;;;;;;;;5086876;28;20063;-56
2023/08/14 11:53:43;;;;;;;0.10;0.10;;;;;;;;;;5093444;28;20076;-56
2023/08/14 11:56:09;;;;;;;0.10;0.10;;;;;;;;;;5091666;28;20101;-57
2023/08/14 11:58:38;;;;;;;0.13;0.13;;;;;;;;;;5091888;28;20275;-56
2023/08/14 12:01:03;;;;;;;0.20;0.20;;;;;;;;;;5086213;28;20170;-53
2023/08/14 12:03:30;;;;;;;0.20;0.20;;;;;;;;;;5093654;28;20611;-53
2023/08/14 12:06:00;;;;;;;0.10;0.10;;;;;;;;;;5088477;28;20047;-55
2023/08/14 12:08:27;;;;;;;0.10;0.10;;;;;;;;;;5090830;28;20443;-55
2023/08/14 12:10:53;;;;;;;0.10;0.10;;;;;;;;;;5090762;28;20048;-58
2023/08/14 12:13:20;;;;;;;0.10;0.10;;;;;;;;;;5093969;28;20405;-56
2023/08/14 12:15:46;;;;;;;0.10;0.10;;;;;;;;;;5093372;28;20097;-56
2023/08/14 12:18:12;;;;;;;0.10;0.10;;;;;;;;;;5091793;28;20059;-55
2023/08/14 12:20:40;;;;;;;0.10;0.10;;;;;;;;;;5096198;28;20043;-56
2023/08/14 12:23:22;;;;;;;0.15;0.15;;;;;;;;;;5097623;28;20097;-56
2023/08/14 12:25:50;;;;;;;0.10;0.10;;;;;;;;;;5098133;28;20148;-56
2023/08/14 12:28:16;;;;;;;0.10;0.10;;;;;;;;;;5100256;28;20065;-54
2023/08/14 12:30:41;;;;;;;0.10;0.10;;;;;;;;;;5092219;28;20492;-56
2023/08/14 12:33:07;;;;;;;0.20;0.20;;;;;;;;;;5084339;28;20162;-56
2023/08/14 12:35:35;;;;;;;0.10;0.10;;;;;;;;;;5079740;28;20050;-56
2023/08/14 12:38:00;;;;;;;0.10;0.10;;;;;;;;;;5085687;28;20097;-53
2023/08/14 12:40:27;;;;;;;0.10;0.10;;;;;;;;;;5087172;28;20043;-55
2023/08/14 12:42:53;;;;;;;0.10;0.10;;;;;;;;;;5096566;28;20040;-56
2023/08/14 12:45:19;;;;;;;0.10;0.10;;;;;;;;;;5099958;28;20054;-55
2023/08/14 12:47:44;;;;;;;0.10;0.10;;;;;;;;;;5098435;28;20039;-55
2023/08/14 12:50:10;;;;;;;0.10;0.10;;;;;;;;;;5091736;28;20050;-55
2023/08/14 12:52:36;;;;;;;0.17;0.17;;;;;;;;;;5089886;28;20036;-55
2023/08/14 12:55:01;;;;;;;0.10;0.10;;;;;;;;;;5095157;28;20044;-56
2023/08/14 12:57:30;;;;;;;0.10;0.10;;;;;;;;;;5100541;28;20063;-55
2023/08/14 12:59:55;;;;;;;0.13;0.13;;;;;;;;;;5103234;28;20407;-56
2023/08/14 13:02:21;;;;;;;0.10;0.10;;;;;;;;;;5103018;27;20044;-55
2023/08/14 13:04:51;;;;;;;0.10;0.10;;;;;;;;;;5097098;28;20043;-55
2023/08/14 13:07:21;;;;;;;0.10;0.10;;;;;;;;;;5099461;28;20052;-55
2023/08/14 13:09:46;;;;;;;0.10;0.10;;;;;;;;;;5099120;28;20381;-55
2023/08/14 13:12:12;;;;;;;0.10;0.10;;;;;;;;;;5098264;28;20560;-56
2023/08/14 13:14:37;;;;;;;0.10;0.10;;;;;;;;;;5093530;28;20047;-55
2023/08/14 13:17:03;;;;;;;0.10;0.10;;;;;;;;;;5099740;28;20052;-55
2023/08/14 13:19:29;;;;;;;0.10;0.10;;;;;;;;;;5099738;28;20625;-55
2023/08/14 13:21:54;;;;;;;0.10;0.10;;;;;;;;;;5100525;28;20043;-54
2023/08/14 13:24:20;;;;;;;0.10;0.10;;;;;;;;;;5105538;28;20708;-54
2023/08/14 13:26:45;;;;;;;0.10;0.10;;;;;;;;;;5097153;28;20040;-55
2023/08/14 13:29:11;;;;;;;0.10;0.10;;;;;;;;;;5097492;28;20048;-55
2023/08/14 13:31:36;;;;;;;0.10;0.10;;;;;;;;;;5098848;28;20058;-48
2023/08/14 13:34:02;;;;;;;0.10;0.10;;;;;;;;;;5085362;28;20079;-48
2023/08/14 13:36:27;;;;;;;0.10;0.10;;;;;;;;;;5084064;28;20051;-50
2023/08/14 13:38:53;;;;;;;0.10;0.10;;;;;;;;;;5086262;28;20054;-48
2023/08/14 13:41:19;;;;;;;0.10;0.10;;;;;;;;;;5086215;28;20271;-48
2023/08/14 13:43:44;;;;;;;0.10;0.10;;;;;;;;;;5099273;28;20256;-47
2023/08/14 13:46:10;;;;;;;0.10;0.10;;;;;;;;;;5098240;28;20138;-47
2023/08/14 13:48:35;;;;;;;0.10;0.10;;;;;;;;;;5105453;28;20616;-47
2023/08/14 13:51:01;;;;;;;0.20;0.20;;;;;;;;;;5102541;28;20473;-50
2023/08/14 13:53:26;;;;;;;0.10;0.10;;;;;;;;;;5103387;28;20107;-51
2023/08/14 13:55:52;;;;;;;0.13;0.13;;;;;;;;;;5095299;28;20066;-48
2023/08/14 13:58:18;;;;;;;0.10;0.10;;;;;;;;;;5091363;28;20056;-50
2023/08/14 14:00:43;;;;;;;0.10;0.10;;;;;;;;;;5085655;28;20067;-48
2023/08/14 14:03:09;;;;;;;0.10;0.10;;;;;;;;;;5105934;28;20047;-48
2023/08/14 14:05:34;;;;;;;0.10;0.10;;;;;;;;;;5104264;28;20155;-51
2023/08/14 14:08:00;;;;;;;0.10;0.10;;;;;;;;;;5104349;28;20103;-49
2023/08/14 14:10:27;;;;;;;0.20;0.20;;;;;;;;;;5090426;28;20138;-49
2023/08/14 14:12:52;;;;;;;0.10;0.10;;;;;;;;;;5102855;28;20105;-47
2023/08/14 14:15:21;;;;;;;0.10;0.10;;;;;;;;;;5090558;28;20447;-47
2023/08/14 14:17:46;;;;;;;0.10;0.10;;;;;;;;;;5103829;28;20539;-48
2023/08/14 14:20:12;;;;;;;0.10;0.10;;;;;;;;;;5090293;28;20625;-48
2023/08/14 14:22:37;;;;;;;0.10;0.10;;;;;;;;;;5085506;28;20056;-49
2023/08/14 14:25:03;;;;;;;0.20;0.20;;;;;;;;;;5097408;28;20413;-48
2023/08/14 14:27:29;;;;;;;0.10;0.10;;;;;;;;;;5113058;28;20507;-47
2023/08/14 14:29:54;;;;;;;0.10;0.10;;;;;;;;;;5097527;28;20048;-47
2023/08/14 14:32:20;;;;;;;0.10;0.10;;;;;;;;;;5097661;28;20093;-46
2023/08/14 14:34:46;;;;;;;0.10;0.10;;;;;;;;;;5114952;28;20054;-48
2023/08/14 14:37:11;;;;;;;0.20;0.20;;;;;;;;;;5123654;28;20047;-49